Time;durP1;ratioP1;P1;durP2;ratioP2;P2;SDS_P1;SDS_P2;PMS_P1;PMS_P2;Temp;Humidity;BMP_temperature;BMP_pressure;BME280_temperature;BME280_humidity;BME280_pressure;Samples;Min_cycle;Max_cycle;Signal;HPM_P1;HPM_P2
2022/11/26 00:00:54;;;;;;;0.20;0.20;;;6.20;99.90;;;;;;5014116;28;20189;-88
2022/11/26 00:03:20;;;;;;;0.20;0.20;;;6.20;99.90;;;;;;5023742;28;21093;-89
2022/11/26 00:05:50;;;;;;;0.20;0.20;;;6.20;99.90;;;;;;5022127;28;20191;-89
2022/11/26 00:08:27;;;;;;;0.30;0.30;;;6.10;99.90;;;;;;5030131;28;20183;-88
2022/11/26 00:10:53;;;;;;;0.20;0.20;;;6.00;99.90;;;;;;5028975;28;20529;-90
2022/11/26 00:13:21;;;;;;;0.30;0.30;;;6.00;99.90;;;;;;5019497;28;20532;-90
2022/11/26 00:15:48;;;;;;;0.30;0.30;;;6.00;99.90;;;;;;5029902;28;20484;-89
2022/11/26 00:18:15;;;;;;;0.23;0.23;;;6.00;99.90;;;;;;5012622;28;20431;-90
2022/11/26 00:20:41;;;;;;;0.20;0.20;;;6.00;99.90;;;;;;4988692;28;20470;-91
2022/11/26 00:23:19;;;;;;;0.30;0.30;;;6.00;99.90;;;;;;4987342;28;20431;-90
2022/11/26 00:25:57;;;;;;;0.30;0.30;;;6.00;99.90;;;;;;4984066;28;20447;-90
2022/11/26 00:28:34;;;;;;;0.30;0.30;;;6.00;99.90;;;;;;5030054;28;20444;-90
2022/11/26 00:31:06;;;;;;;0.30;0.30;;;6.00;99.90;;;;;;5005257;28;20441;-91
2022/11/26 00:33:32;;;;;;;0.20;0.20;;;5.80;99.90;;;;;;4973234;28;20572;-90
2022/11/26 00:36:02;;;;;;;0.20;0.20;;;5.80;99.90;;;;;;5029887;28;20548;-90
2022/11/26 00:38:29;;;;;;;0.20;0.20;;;5.80;99.90;;;;;;5030637;28;20438;-89
2022/11/26 00:40:55;;;;;;;0.27;0.27;;;5.80;99.90;;;;;;5013949;28;20446;-89
2022/11/26 00:43:20;;;;;;;0.30;0.30;;;5.80;99.90;;;;;;5029789;28;20988;-89
2022/11/26 00:45:49;;;;;;;0.30;0.30;;;5.70;99.90;;;;;;4990743;28;20198;-90
2022/11/26 00:48:15;;;;;;;0.30;0.30;;;5.60;99.90;;;;;;4984804;28;20219;-89
2022/11/26 00:50:49;;;;;;;0.30;0.30;;;5.60;99.90;;;;;;5021061;28;20460;-89
2022/11/26 00:53:19;;;;;;;0.30;0.30;;;5.60;99.90;;;;;;5010869;28;20450;-89
2022/11/26 00:55:47;;;;;;;0.30;0.30;;;5.70;99.90;;;;;;5013961;28;20477;-90
2022/11/26 00:58:28;;;;;;;0.30;0.30;;;5.70;99.90;;;;;;5023728;28;20451;-90
2022/11/26 01:00:56;;;;;;;0.20;0.20;;;5.70;99.90;;;;;;5028139;28;20569;-90
2022/11/26 01:03:21;;;;;;;0.23;0.23;;;5.70;99.90;;;;;;5028124;28;20438;-88
2022/11/26 01:05:52;;;;;;;0.30;0.30;;;5.70;99.90;;;;;;5028578;28;20805;-90
2022/11/26 01:08:34;;;;;;;0.30;0.30;;;5.70;99.90;;;;;;5029620;28;20544;-89
2022/11/26 01:11:01;;;;;;;0.30;0.30;;;5.60;99.90;;;;;;5028579;28;20445;-90
2022/11/26 01:13:28;;;;;;;0.20;0.20;;;5.60;99.90;;;;;;5028533;28;21120;-90
2022/11/26 01:15:55;;;;;;;0.20;0.20;;;5.60;99.90;;;;;;5027124;28;20978;-89
2022/11/26 01:18:22;;;;;;;0.30;0.30;;;5.60;99.90;;;;;;5028352;28;20450;-90
2022/11/26 01:20:47;;;;;;;0.20;0.20;;;5.50;99.90;;;;;;4995527;28;20435;-90
2022/11/26 01:23:15;;;;;;;0.30;0.30;;;5.50;99.90;;;;;;5028344;28;21860;-90
2022/11/26 01:25:41;;;;;;;0.30;0.30;;;5.50;99.90;;;;;;4987651;28;20249;-89
2022/11/26 01:28:17;;;;;;;0.20;0.20;;;5.50;99.90;;;;;;4989355;28;20442;-89
2022/11/26 01:30:42;;;;;;;0.30;0.30;;;5.50;99.90;;;;;;5028606;28;20492;-89
2022/11/26 01:33:08;;;;;;;0.30;0.30;;;5.50;99.90;;;;;;5029749;28;20442;-90
2022/11/26 01:35:37;;;;;;;0.20;0.20;;;5.50;99.90;;;;;;5029893;28;20276;-89
2022/11/26 01:38:03;;;;;;;0.30;0.30;;;5.40;99.90;;;;;;5023124;28;20242;-90
2022/11/26 01:40:53;;;;;;;0.20;0.20;;;5.40;99.90;;;;;;5015136;28;21157;-89
2022/11/26 01:43:33;;;;;;;0.30;0.30;;;5.30;99.90;;;;;;4990191;28;20450;-90
2022/11/26 01:45:59;;;;;;;0.30;0.30;;;5.20;99.90;;;;;;5029079;28;20448;-89
2022/11/26 01:48:33;;;;;;;0.30;0.30;;;5.20;99.90;;;;;;5029035;28;21077;-89
2022/11/26 01:51:07;;;;;;;0.30;0.30;;;5.30;99.90;;;;;;4987112;28;20187;-90
2022/11/26 01:53:45;;;;;;;0.30;0.30;;;5.30;99.90;;;;;;4965349;28;20454;-90
2022/11/26 01:56:32;;;;;;;0.30;0.30;;;5.20;99.90;;;;;;5025036;28;20908;-90
2022/11/26 01:59:05;;;;;;;0.23;0.23;;;5.20;99.90;;;;;;4993249;28;20442;-89
2022/11/26 02:01:32;;;;;;;0.30;0.30;;;5.20;99.90;;;;;;4969817;28;20454;-90
2022/11/26 02:04:09;;;;;;;0.30;0.30;;;5.20;99.90;;;;;;5019710;28;20438;-89
2022/11/26 02:06:35;;;;;;;0.40;0.40;;;5.10;99.90;;;;;;4989378;28;20419;-89
2022/11/26 02:09:03;;;;;;;0.40;0.40;;;5.10;99.90;;;;;;5012343;28;20452;-90
2022/11/26 02:11:30;;;;;;;0.30;0.30;;;5.10;99.90;;;;;;4967941;28;21009;-89
2022/11/26 02:14:00;;;;;;;0.30;0.30;;;5.10;99.90;;;;;;5029386;28;20441;-89
2022/11/26 02:16:45;;;;;;;0.30;0.30;;;5.00;99.90;;;;;;5028787;28;20483;-88
2022/11/26 02:19:21;;;;;;;0.30;0.30;;;5.00;99.90;;;;;;5028915;28;20450;-90
2022/11/26 02:21:55;;;;;;;0.30;0.30;;;5.00;99.90;;;;;;5009324;28;20885;-90
2022/11/26 02:24:47;;;;;;;0.20;0.20;;;4.90;99.90;;;;;;5020779;28;20572;-89
2022/11/26 02:27:44;;;;;;;0.30;0.30;;;4.90;99.90;;;;;;5024016;28;20848;-89
2022/11/26 02:30:16;;;;;;;0.30;0.30;;;4.90;99.90;;;;;;5028210;28;20453;-89
2022/11/26 02:32:47;;;;;;;0.30;0.30;;;4.80;99.90;;;;;;5029930;28;20492;-89
2022/11/26 02:35:23;;;;;;;0.30;0.30;;;4.80;99.90;;;;;;5031704;28;20434;-89
2022/11/26 02:37:57;;;;;;;0.40;0.40;;;4.80;99.90;;;;;;5033425;28;20826;-90
2022/11/26 02:40:24;;;;;;;0.30;0.30;;;4.60;99.90;;;;;;5014920;28;21057;-90
2022/11/26 02:42:50;;;;;;;0.27;0.27;;;4.60;99.90;;;;;;5028400;28;20814;-90
2022/11/26 02:45:29;;;;;;;0.30;0.30;;;4.60;99.90;;;;;;5013913;28;20446;-90
2022/11/26 02:47:58;;;;;;;0.30;0.30;;;4.60;99.90;;;;;;5014560;28;20931;-89
2022/11/26 02:50:29;;;;;;;0.30;0.30;;;4.50;99.90;;;;;;5032837;28;20446;-90
2022/11/26 02:52:57;;;;;;;0.30;0.30;;;4.50;99.90;;;;;;5022754;28;20955;-89
2022/11/26 02:55:28;;;;;;;0.30;0.30;;;4.50;99.90;;;;;;4971712;28;20470;-89
2022/11/26 02:57:57;;;;;;;0.30;0.30;;;4.50;99.90;;;;;;5012309;28;20588;-89
2022/11/26 03:00:23;;;;;;;0.30;0.30;;;4.50;99.90;;;;;;5028699;28;21013;-89
2022/11/26 03:03:03;;;;;;;0.30;0.30;;;4.50;99.90;;;;;;4959992;28;20453;-89
2022/11/26 03:05:34;;;;;;;0.30;0.30;;;4.50;99.90;;;;;;4975619;28;20495;-90
2022/11/26 03:08:01;;;;;;;0.30;0.30;;;4.60;99.90;;;;;;5033064;28;20438;-88
2022/11/26 03:10:29;;;;;;;0.30;0.30;;;4.60;99.90;;;;;;5031025;28;20430;-89
2022/11/26 03:12:54;;;;;;;0.20;0.20;;;4.50;99.90;;;;;;5027766;28;20485;-89
2022/11/26 03:15:20;;;;;;;0.30;0.30;;;4.50;99.90;;;;;;5029880;28;20484;-89
2022/11/26 03:17:46;;;;;;;0.30;0.30;;;4.50;99.90;;;;;;5032607;28;20191;-89
2022/11/26 03:20:12;;;;;;;0.30;0.30;;;4.60;99.90;;;;;;5031692;28;20438;-90
2022/11/26 03:22:37;;;;;;;0.30;0.30;;;4.60;99.90;;;;;;4989184;28;20668;-89
2022/11/26 03:25:04;;;;;;;0.40;0.40;;;4.60;99.90;;;;;;5031179;28;20262;-90
2022/11/26 03:27:29;;;;;;;0.30;0.30;;;4.70;99.90;;;;;;5030099;28;20192;-90
2022/11/26 03:29:55;;;;;;;0.30;0.30;;;4.70;99.90;;;;;;5032178;28;20457;-90
2022/11/26 03:32:20;;;;;;;0.30;0.30;;;4.70;99.90;;;;;;5029846;28;20672;-90
2022/11/26 03:34:46;;;;;;;0.30;0.30;;;4.70;99.90;;;;;;5020847;28;20731;-89
2022/11/26 03:37:11;;;;;;;0.30;0.30;;;4.80;99.90;;;;;;5031100;28;20226;-89
2022/11/26 03:39:37;;;;;;;0.30;0.30;;;4.80;99.90;;;;;;5024295;28;20548;-89
2022/11/26 03:42:03;;;;;;;0.30;0.30;;;4.80;99.90;;;;;;5028199;28;20659;-90
2022/11/26 03:44:28;;;;;;;0.20;0.20;;;4.80;99.90;;;;;;5030981;28;20586;-90
2022/11/26 03:46:53;;;;;;;0.30;0.30;;;4.80;99.90;;;;;;5014300;28;20200;-89
2022/11/26 03:49:19;;;;;;;0.30;0.30;;;4.90;99.90;;;;;;5028156;28;20192;-89
2022/11/26 03:51:44;;;;;;;0.30;0.30;;;4.90;99.90;;;;;;4996645;28;20214;-90
2022/11/26 03:54:10;;;;;;;0.30;0.30;;;4.90;99.90;;;;;;4994326;28;20183;-89
2022/11/26 03:56:35;;;;;;;0.30;0.30;;;4.90;99.90;;;;;;5029034;28;20617;-88
2022/11/26 03:59:01;;;;;;;0.30;0.30;;;4.90;99.90;;;;;;5030608;28;20262;-89
2022/11/26 04:01:27;;;;;;;0.30;0.30;;;5.00;99.90;;;;;;5029406;28;20211;-89
2022/11/26 04:03:52;;;;;;;0.30;0.30;;;5.00;99.90;;;;;;5029330;28;20651;-89
2022/11/26 04:06:18;;;;;;;0.30;0.30;;;5.00;99.90;;;;;;5030139;28;20195;-89
2022/11/26 04:08:43;;;;;;;0.30;0.30;;;5.10;99.90;;;;;;5031693;28;20187;-89
2022/11/26 04:11:09;;;;;;;0.30;0.30;;;5.10;99.90;;;;;;5028575;28;20282;-88
2022/11/26 04:13:34;;;;;;;0.20;0.20;;;5.10;99.90;;;;;;5027900;28;20250;-88
2022/11/26 04:16:00;;;;;;;0.30;0.30;;;5.10;99.90;;;;;;5009418;28;20278;-90
2022/11/26 04:18:25;;;;;;;0.30;0.30;;;5.20;99.90;;;;;;5021379;28;20192;-89
2022/11/26 04:20:51;;;;;;;0.40;0.40;;;5.20;99.90;;;;;;5031778;28;20562;-89
2022/11/26 04:23:16;;;;;;;0.40;0.40;;;5.20;99.90;;;;;;5024267;28;20203;-89
2022/11/26 04:25:42;;;;;;;0.30;0.30;;;5.20;99.90;;;;;;5029717;28;21479;-89
2022/11/26 04:28:07;;;;;;;0.30;0.30;;;5.30;99.90;;;;;;4996004;28;20199;-88
2022/11/26 04:30:33;;;;;;;0.23;0.23;;;5.40;99.90;;;;;;4934239;28;20234;-91
2022/11/26 04:32:58;;;;;;;0.27;0.27;;;5.40;99.90;;;;;;5024095;28;20546;-88
2022/11/26 04:35:24;;;;;;;0.20;0.20;;;5.50;99.90;;;;;;5028820;28;20326;-89
2022/11/26 04:37:49;;;;;;;0.20;0.20;;;5.50;99.90;;;;;;5018079;28;20187;-88
2022/11/26 04:40:15;;;;;;;0.30;0.30;;;5.60;99.90;;;;;;5022973;28;20184;-89
2022/11/26 04:42:41;;;;;;;0.30;0.30;;;5.60;99.90;;;;;;5018240;28;20184;-89
2022/11/26 04:45:07;;;;;;;0.20;0.20;;;5.60;99.90;;;;;;5024496;28;20445;-90
2022/11/26 04:47:33;;;;;;;0.30;0.30;;;5.60;99.90;;;;;;5015690;28;20241;-90
2022/11/26 04:49:58;;;;;;;0.30;0.30;;;5.70;99.90;;;;;;4994386;28;20445;-89
2022/11/26 04:52:24;;;;;;;0.23;0.23;;;5.70;99.90;;;;;;5024182;28;20194;-88
2022/11/26 04:54:49;;;;;;;0.30;0.30;;;5.70;99.90;;;;;;5011990;28;20191;-89
2022/11/26 04:57:15;;;;;;;0.27;0.27;;;5.70;99.90;;;;;;5028919;28;20234;-89
2022/11/26 04:59:40;;;;;;;0.30;0.30;;;5.70;99.90;;;;;;4997472;28;20202;-89
2022/11/26 05:02:06;;;;;;;0.20;0.20;;;5.80;99.90;;;;;;4991999;28;20189;-89
2022/11/26 05:04:32;;;;;;;0.20;0.20;;;5.80;99.90;;;;;;5005795;28;20214;-89
2022/11/26 05:06:57;;;;;;;0.30;0.30;;;5.90;99.90;;;;;;4947836;28;20561;-88
2022/11/26 05:09:23;;;;;;;0.20;0.20;;;5.90;99.90;;;;;;4966280;28;20196;-90
2022/11/26 05:11:48;;;;;;;0.30;0.30;;;5.90;99.90;;;;;;5028176;28;20369;-89
2022/11/26 05:14:14;;;;;;;0.30;0.30;;;6.00;99.90;;;;;;5025931;28;20210;-89
2022/11/26 05:16:39;;;;;;;0.30;0.30;;;6.00;99.90;;;;;;5030832;28;20227;-90
2022/11/26 05:19:05;;;;;;;0.20;0.20;;;6.00;99.90;;;;;;5030856;28;20183;-88
2022/11/26 05:21:30;;;;;;;0.30;0.30;;;6.00;99.90;;;;;;5026968;28;20701;-89
2022/11/26 05:23:56;;;;;;;0.23;0.23;;;6.10;99.90;;;;;;5028474;28;20187;-89
2022/11/26 05:26:21;;;;;;;0.30;0.30;;;6.10;99.90;;;;;;5010797;28;20183;-88
2022/11/26 05:28:47;;;;;;;0.20;0.20;;;6.10;99.90;;;;;;5025250;28;20184;-88
2022/11/26 05:31:12;;;;;;;0.20;0.20;;;6.20;99.90;;;;;;5024356;28;20195;-90
2022/11/26 05:33:38;;;;;;;0.20;0.20;;;6.20;99.90;;;;;;5028876;28;20184;-89
2022/11/26 05:36:04;;;;;;;0.30;0.30;;;6.20;99.90;;;;;;5030137;28;20311;-89
2022/11/26 05:38:29;;;;;;;0.20;0.20;;;6.20;99.90;;;;;;5029623;28;20195;-88
2022/11/26 05:40:55;;;;;;;0.20;0.20;;;6.20;99.90;;;;;;5029994;28;20195;-89
2022/11/26 05:43:21;;;;;;;0.20;0.20;;;6.20;99.90;;;;;;5040879;28;20214;-90
2022/11/26 05:45:48;;;;;;;0.20;0.20;;;6.20;99.90;;;;;;5028589;28;20214;-90
2022/11/26 05:48:13;;;;;;;0.20;0.20;;;6.20;99.90;;;;;;5021864;28;20532;-90
2022/11/26 05:50:39;;;;;;;0.30;0.30;;;6.30;99.90;;;;;;5027897;28;21213;-89
2022/11/26 05:53:05;;;;;;;0.20;0.20;;;6.20;99.90;;;;;;5010148;28;20223;-89
2022/11/26 05:55:31;;;;;;;0.20;0.20;;;6.30;99.90;;;;;;5029107;28;20214;-90
2022/11/26 05:57:56;;;;;;;0.20;0.20;;;6.20;99.90;;;;;;5019527;28;20186;-89
2022/11/26 06:00:22;;;;;;;0.27;0.27;;;6.30;99.90;;;;;;4996940;28;20434;-89
2022/11/26 06:02:47;;;;;;;0.20;0.20;;;6.30;99.90;;;;;;5022114;28;21862;-90
2022/11/26 06:05:13;;;;;;;0.20;0.20;;;6.30;99.90;;;;;;5026181;28;20257;-90
2022/11/26 06:07:39;;;;;;;0.20;0.20;;;6.30;99.90;;;;;;5013324;28;20241;-89
2022/11/26 06:10:05;;;;;;;0.30;0.30;;;6.20;99.90;;;;;;5028856;28;20841;-89
2022/11/26 06:12:31;;;;;;;0.20;0.20;;;6.20;99.90;;;;;;5032480;28;20270;-89
2022/11/26 06:14:57;;;;;;;0.20;0.20;;;6.20;99.90;;;;;;5031335;28;21038;-89
2022/11/26 06:17:22;;;;;;;0.30;0.30;;;6.20;99.90;;;;;;5006944;28;20230;-89
2022/11/26 06:19:48;;;;;;;0.30;0.30;;;6.20;99.90;;;;;;4983738;28;20647;-89
2022/11/26 06:22:13;;;;;;;0.20;0.20;;;6.20;99.90;;;;;;5030156;28;20198;-89
2022/11/26 06:24:39;;;;;;;0.23;0.23;;;6.20;99.90;;;;;;4971155;28;20191;-88
2022/11/26 06:27:04;;;;;;;0.30;0.30;;;6.20;99.90;;;;;;5028210;28;20227;-86
2022/11/26 06:29:30;;;;;;;0.20;0.20;;;6.20;99.90;;;;;;5010421;28;20290;-87
2022/11/26 06:31:55;;;;;;;0.30;0.30;;;6.20;99.90;;;;;;4986960;28;20206;-89
2022/11/26 06:34:21;;;;;;;0.20;0.20;;;6.20;99.90;;;;;;5015491;28;20237;-90
2022/11/26 06:36:46;;;;;;;0.30;0.30;;;6.10;99.90;;;;;;5031242;28;20215;-88
2022/11/26 06:39:12;;;;;;;0.20;0.20;;;6.10;99.90;;;;;;5033203;28;20305;-88
2022/11/26 06:41:37;;;;;;;0.20;0.20;;;6.10;99.90;;;;;;5013497;28;20565;-88
2022/11/26 06:44:03;;;;;;;0.30;0.30;;;6.00;99.90;;;;;;5023008;28;20183;-88
2022/11/26 06:46:29;;;;;;;0.20;0.20;;;5.90;99.90;;;;;;5028523;28;20228;-92
2022/11/26 06:48:59;;;;;;;0.30;0.30;;;5.90;99.90;;;;;;5002254;28;20446;-87
2022/11/26 06:51:26;;;;;;;0.30;0.30;;;5.90;99.90;;;;;;5031326;28;20200;-88
2022/11/26 06:53:52;;;;;;;0.20;0.20;;;5.90;99.90;;;;;;5016988;28;20470;-90
2022/11/26 06:56:18;;;;;;;0.30;0.30;;;5.80;99.90;;;;;;5006156;28;20530;-89
2022/11/26 06:58:45;;;;;;;0.30;0.30;;;5.80;99.90;;;;;;5014919;28;20529;-90
2022/11/26 07:01:14;;;;;;;0.30;0.30;;;5.80;99.90;;;;;;5027785;28;20191;-92
2022/11/26 07:03:39;;;;;;;0.30;0.30;;;5.70;99.90;;;;;;5012228;28;20442;-90
2022/11/26 07:06:13;;;;;;;0.20;0.20;;;5.70;99.90;;;;;;5023549;28;20532;-90
2022/11/26 07:08:39;;;;;;;0.30;0.30;;;5.70;99.90;;;;;;5028667;28;20812;-91
2022/11/26 07:11:04;;;;;;;0.30;0.30;;;5.70;99.90;;;;;;5029587;28;20461;-89
2022/11/26 07:13:30;;;;;;;0.30;0.30;;;5.70;99.90;;;;;;5027298;28;20238;-88
2022/11/26 07:16:01;;;;;;;0.30;0.30;;;5.70;99.90;;;;;;5030721;28;20223;-89
2022/11/26 07:18:27;;;;;;;0.20;0.20;;;5.70;99.90;;;;;;5028217;28;20736;-89
2022/11/26 07:20:52;;;;;;;0.30;0.30;;;5.60;99.90;;;;;;5022292;28;20533;-90
2022/11/26 07:23:18;;;;;;;0.30;0.30;;;5.60;99.90;;;;;;4999866;28;20217;-88
2022/11/26 07:25:43;;;;;;;0.20;0.20;;;5.60;99.90;;;;;;5030788;28;20195;-91
2022/11/26 07:28:09;;;;;;;0.20;0.20;;;5.60;99.90;;;;;;5033270;28;20746;-94
2022/11/26 07:30:34;;;;;;;0.30;0.30;;;5.60;99.90;;;;;;5031778;28;20274;-94
2022/11/26 07:33:00;;;;;;;0.30;0.30;;;5.60;99.90;;;;;;5029842;28;20188;-91
2022/11/26 07:35:25;;;;;;;0.30;0.30;;;5.60;99.90;;;;;;5029772;28;20191;-90
2022/11/26 07:37:51;;;;;;;0.30;0.30;;;5.50;99.90;;;;;;4993390;28;20196;-90
2022/11/26 07:40:16;;;;;;;0.20;0.20;;;5.50;99.90;;;;;;5025614;28;20191;-89
2022/11/26 07:42:41;;;;;;;0.30;0.30;;;5.40;99.90;;;;;;5030045;28;20690;-90
2022/11/26 07:45:08;;;;;;;0.30;0.30;;;5.40;99.90;;;;;;5027749;28;20179;-89
2022/11/26 07:47:33;;;;;;;0.30;0.30;;;5.40;99.90;;;;;;5006379;28;20195;-89
2022/11/26 07:49:59;;;;;;;0.30;0.30;;;5.50;99.90;;;;;;5029725;28;20454;-88
2022/11/26 07:52:24;;;;;;;0.30;0.30;;;5.50;99.90;;;;;;5031022;28;20666;-89
2022/11/26 07:54:50;;;;;;;0.30;0.30;;;5.50;99.90;;;;;;4987372;28;20217;-88
2022/11/26 07:57:17;;;;;;;0.20;0.20;;;5.40;99.90;;;;;;5030705;28;20231;-94
2022/11/26 07:59:42;;;;;;;0.20;0.20;;;5.40;99.90;;;;;;5034603;28;20183;-93
2022/11/26 08:02:12;;;;;;;0.30;0.30;;;5.40;99.90;;;;;;4994695;28;20442;-92
2022/11/26 08:04:38;;;;;;;0.30;0.30;;;5.40;99.90;;;;;;5040193;28;20242;-93
2022/11/26 08:07:03;;;;;;;0.30;0.30;;;5.40;99.90;;;;;;5034163;28;20841;-91
2022/11/26 08:09:29;;;;;;;0.30;0.30;;;5.30;99.90;;;;;;5032174;28;20561;-93
2022/11/26 08:11:54;;;;;;;0.30;0.30;;;5.30;99.90;;;;;;5032587;28;20260;-94
2022/11/26 08:14:20;;;;;;;0.30;0.30;;;5.30;99.90;;;;;;5034737;28;20571;-94
2022/11/26 08:16:45;;;;;;;0.30;0.30;;;5.20;99.90;;;;;;5034922;28;20215;-94
2022/11/26 08:19:12;;;;;;;0.30;0.30;;;5.10;99.90;;;;;;5031759;28;20245;-95
2022/11/26 08:21:38;;;;;;;0.30;0.30;;;5.10;99.90;;;;;;5031844;28;20651;-93
2022/11/26 08:24:05;;;;;;;0.30;0.30;;;5.10;99.90;;;;;;5019472;28;20469;-93
2022/11/26 08:26:31;;;;;;;0.23;0.23;;;5.10;99.90;;;;;;4972528;28;20266;-88
2022/11/26 08:28:58;;;;;;;0.20;0.20;;;5.10;99.90;;;;;;5028231;28;20442;-89
2022/11/26 08:31:26;;;;;;;0.30;0.30;;;5.10;99.90;;;;;;5015112;28;20188;-88
2022/11/26 08:33:54;;;;;;;0.30;0.30;;;5.10;99.90;;;;;;5028422;28;20533;-89
2022/11/26 08:36:20;;;;;;;0.30;0.30;;;5.10;99.90;;;;;;5030519;28;20558;-86
2022/11/26 08:38:46;;;;;;;0.30;0.30;;;5.10;99.90;;;;;;4991397;28;20536;-84
2022/11/26 08:41:12;;;;;;;0.30;0.30;;;5.00;99.90;;;;;;5028565;28;20183;-84
2022/11/26 08:43:39;;;;;;;0.30;0.30;;;5.00;99.90;;;;;;5028319;28;20223;-84
2022/11/26 08:46:05;;;;;;;0.30;0.30;;;5.00;99.90;;;;;;5013088;28;21041;-84
2022/11/26 08:48:32;;;;;;;0.30;0.30;;;5.10;99.90;;;;;;5027845;28;20458;-84
2022/11/26 08:50:59;;;;;;;0.30;0.30;;;5.10;99.90;;;;;;5002736;28;20455;-85
2022/11/26 08:53:27;;;;;;;0.30;0.30;;;5.00;99.90;;;;;;5004866;28;20481;-86
2022/11/26 08:55:57;;;;;;;0.30;0.30;;;5.00;99.90;;;;;;5017439;28;20532;-86
2022/11/26 08:58:23;;;;;;;0.30;0.30;;;5.00;99.90;;;;;;5026974;28;20450;-86
2022/11/26 09:00:48;;;;;;;0.30;0.30;;;5.00;99.90;;;;;;5027246;28;20855;-86
2022/11/26 09:03:14;;;;;;;0.30;0.30;;;5.00;99.90;;;;;;4990713;28;20191;-86
2022/11/26 09:05:39;;;;;;;0.30;0.30;;;5.00;99.90;;;;;;4997004;28;20721;-85
2022/11/26 09:08:05;;;;;;;0.30;0.30;;;5.00;99.90;;;;;;4958004;28;20195;-86
2022/11/26 09:10:30;;;;;;;0.30;0.30;;;5.00;99.90;;;;;;5025417;28;20215;-85
2022/11/26 09:12:56;;;;;;;0.30;0.30;;;5.00;99.90;;;;;;5014369;28;20235;-85
2022/11/26 09:15:21;;;;;;;0.30;0.30;;;5.00;99.90;;;;;;4966198;28;20875;-86
2022/11/26 09:17:47;;;;;;;0.30;0.30;;;5.00;99.90;;;;;;5013435;28;20198;-86
2022/11/26 09:20:12;;;;;;;0.30;0.30;;;5.00;99.90;;;;;;4988120;28;20187;-87
2022/11/26 09:22:37;;;;;;;0.30;0.30;;;5.10;99.90;;;;;;5028944;28;20648;-86
2022/11/26 09:25:03;;;;;;;0.30;0.30;;;5.10;99.90;;;;;;5028143;28;20746;-86
2022/11/26 09:27:29;;;;;;;0.30;0.30;;;5.10;99.90;;;;;;5029294;28;20219;-86
2022/11/26 09:29:55;;;;;;;0.30;0.30;;;5.00;99.90;;;;;;5027674;28;20241;-87
2022/11/26 09:32:20;;;;;;;0.30;0.30;;;5.10;99.90;;;;;;5029035;28;20660;-87
2022/11/26 09:34:46;;;;;;;0.30;0.30;;;5.10;99.90;;;;;;5028675;28;20454;-87
2022/11/26 09:37:11;;;;;;;0.30;0.30;;;5.20;99.90;;;;;;5029597;28;20219;-86
2022/11/26 09:39:37;;;;;;;0.30;0.30;;;5.30;99.90;;;;;;5030754;28;20172;-87
2022/11/26 09:42:10;;;;;;;0.30;0.30;;;5.20;99.90;;;;;;5015337;28;20567;-87
2022/11/26 09:44:53;;;;;;;0.23;0.23;;;5.30;99.90;;;;;;5032613;28;20213;-87
2022/11/26 09:47:24;;;;;;;0.30;0.30;;;5.30;99.90;;;;;;5016121;28;20422;-86
2022/11/26 09:50:11;;;;;;;0.20;0.20;;;5.30;99.90;;;;;;5016184;28;20938;-86
2022/11/26 09:52:41;;;;;;;0.20;0.20;;;5.40;99.90;;;;;;5030536;28;20953;-87
2022/11/26 09:55:18;;;;;;;0.30;0.30;;;5.40;99.90;;;;;;5028248;28;20457;-87
2022/11/26 09:58:10;;;;;;;0.30;0.30;;;5.50;99.90;;;;;;5028350;28;20465;-87
2022/11/26 10:00:42;;;;;;;0.20;0.20;;;5.50;99.90;;;;;;5030186;28;20434;-88
2022/11/26 10:03:15;;;;;;;0.30;0.30;;;5.40;99.90;;;;;;5029273;28;20485;-87
2022/11/26 10:06:08;;;;;;;0.20;0.20;;;5.40;99.90;;;;;;5031700;28;20476;-87
2022/11/26 10:09:18;;;;;;;0.30;0.30;;;5.50;99.90;;;;;;5030716;28;20441;-87
2022/11/26 10:12:03;;;;;;;0.30;0.30;;;5.40;99.90;;;;;;5021079;28;21072;-87
2022/11/26 10:14:59;;;;;;;0.23;0.23;;;5.50;99.90;;;;;;5031119;28;20807;-87
2022/11/26 10:17:39;;;;;;;0.30;0.30;;;5.60;99.90;;;;;;5033587;28;20485;-87
2022/11/26 10:20:16;;;;;;;0.30;0.30;;;5.60;99.90;;;;;;5031358;28;20527;-86
2022/11/26 10:23:01;;;;;;;0.30;0.30;;;5.70;99.90;;;;;;5030548;28;20445;-87
2022/11/26 10:25:30;;;;;;;0.30;0.30;;;5.60;99.90;;;;;;5031253;28;20457;-87
2022/11/26 10:27:57;;;;;;;0.20;0.20;;;5.70;99.90;;;;;;5009139;28;20954;-87
2022/11/26 10:30:29;;;;;;;0.30;0.30;;;5.80;99.90;;;;;;5031794;28;20441;-87
2022/11/26 10:32:57;;;;;;;0.30;0.30;;;5.90;99.90;;;;;;5010239;28;20448;-87
2022/11/26 10:35:26;;;;;;;0.27;0.27;;;6.00;99.90;;;;;;4985733;28;20506;-88
2022/11/26 10:37:54;;;;;;;0.30;0.30;;;5.90;99.90;;;;;;4991900;28;20426;-88
2022/11/26 10:40:29;;;;;;;0.30;0.30;;;5.90;99.90;;;;;;5028808;28;20524;-87
2022/11/26 10:43:16;;;;;;;0.20;0.20;;;6.00;99.90;;;;;;5010238;28;20544;-88
2022/11/26 10:45:53;;;;;;;0.20;0.20;;;5.90;99.90;;;;;;5018170;28;20442;-88
2022/11/26 10:48:23;;;;;;;0.30;0.30;;;6.00;99.90;;;;;;4991236;28;20445;-88
2022/11/26 10:51:27;;;;;;;0.20;0.20;;;5.90;99.90;;;;;;4994453;28;20438;-87
2022/11/26 10:53:58;;;;;;;0.30;0.30;;;6.00;99.90;;;;;;4990253;28;20897;-87
2022/11/26 10:56:45;;;;;;;0.30;0.30;;;6.00;99.90;;;;;;5029204;28;20841;-88
2022/11/26 10:59:36;;;;;;;0.30;0.30;;;5.90;99.90;;;;;;5031833;28;20544;-87
2022/11/26 11:02:23;;;;;;;0.20;0.20;;;6.10;99.90;;;;;;5030156;28;20454;-88
2022/11/26 11:04:52;;;;;;;0.30;0.30;;;6.00;99.90;;;;;;5029600;28;20461;-87
2022/11/26 11:07:36;;;;;;;0.20;0.20;;;6.00;99.90;;;;;;5031681;28;20441;-90
2022/11/26 11:10:08;;;;;;;0.30;0.30;;;5.90;99.90;;;;;;5029128;28;20449;-88
2022/11/26 11:12:38;;;;;;;0.30;0.30;;;5.90;99.90;;;;;;5026215;28;21226;-88
2022/11/26 11:15:29;;;;;;;0.30;0.30;;;5.90;99.90;;;;;;5028499;28;20450;-88
2022/11/26 11:18:06;;;;;;;0.30;0.30;;;5.90;99.90;;;;;;5025514;28;20974;-88
2022/11/26 11:20:33;;;;;;;0.20;0.20;;;5.90;99.90;;;;;;5029075;28;20442;-88
2022/11/26 11:23:03;;;;;;;0.30;0.30;;;5.90;99.90;;;;;;5010385;28;20438;-89
2022/11/26 11:25:32;;;;;;;0.30;0.30;;;5.90;99.90;;;;;;4996182;28;20435;-88
2022/11/26 11:28:07;;;;;;;0.20;0.20;;;5.80;99.90;;;;;;5003313;28;20520;-85
2022/11/26 11:30:36;;;;;;;0.20;0.20;;;5.90;99.90;;;;;;4996065;28;20501;-87
2022/11/26 11:33:09;;;;;;;0.20;0.20;;;6.00;99.90;;;;;;5029729;28;20522;-86
2022/11/26 11:35:35;;;;;;;0.20;0.20;;;6.00;99.90;;;;;;4998029;28;20441;-86
2022/11/26 11:38:00;;;;;;;0.20;0.20;;;6.10;99.90;;;;;;5048438;28;20491;-86
2022/11/26 11:40:29;;;;;;;0.20;0.20;;;6.10;99.90;;;;;;4968903;28;20201;-88
2022/11/26 11:43:01;;;;;;;0.27;0.27;;;6.20;99.90;;;;;;4949042;28;20195;-86
2022/11/26 11:45:40;;;;;;;0.30;0.30;;;6.10;99.90;;;;;;4993269;28;20493;-86
2022/11/26 11:48:15;;;;;;;0.20;0.20;;;6.00;99.90;;;;;;5021510;28;20482;-88
2022/11/26 11:51:12;;;;;;;0.20;0.20;;;6.00;99.90;;;;;;5026197;28;20442;-87
2022/11/26 11:53:49;;;;;;;0.30;0.30;;;6.10;99.90;;;;;;5024104;28;21618;-87
2022/11/26 11:56:29;;;;;;;0.30;0.30;;;6.00;99.90;;;;;;5002306;28;20503;-88
2022/11/26 11:59:15;;;;;;;0.30;0.30;;;6.10;99.90;;;;;;5022161;28;20976;-89
2022/11/26 12:01:49;;;;;;;0.20;0.20;;;6.10;99.90;;;;;;4985662;28;20807;-89
2022/11/26 12:04:34;;;;;;;0.30;0.30;;;6.20;99.90;;;;;;5013951;28;20449;-90
2022/11/26 12:07:17;;;;;;;0.20;0.20;;;6.20;99.90;;;;;;5031384;28;20525;-89
2022/11/26 12:10:15;;;;;;;0.30;0.30;;;6.20;99.90;;;;;;5030024;28;20442;-89
2022/11/26 12:13:12;;;;;;;0.20;0.20;;;6.10;99.90;;;;;;5022591;28;20897;-89
2022/11/26 12:15:59;;;;;;;0.20;0.20;;;6.00;99.90;;;;;;5015228;28;20458;-89
2022/11/26 12:18:52;;;;;;;0.30;0.30;;;6.00;99.90;;;;;;5014294;28;20533;-91
2022/11/26 12:21:47;;;;;;;0.23;0.23;;;6.00;99.90;;;;;;5011713;28;20490;-89
2022/11/26 12:24:36;;;;;;;0.30;0.30;;;6.00;99.90;;;;;;4993585;28;20423;-89
2022/11/26 12:27:43;;;;;;;0.20;0.20;;;6.00;99.90;;;;;;5014373;28;20452;-89
2022/11/26 12:30:21;;;;;;;0.30;0.30;;;6.10;99.90;;;;;;5006947;28;20442;-89
2022/11/26 12:32:55;;;;;;;0.30;0.30;;;6.20;99.90;;;;;;5011059;28;20523;-89
2022/11/26 12:35:33;;;;;;;0.20;0.20;;;6.20;99.90;;;;;;4991357;28;20457;-89
2022/11/26 12:38:17;;;;;;;0.20;0.20;;;6.20;99.90;;;;;;5031008;28;20462;-89
2022/11/26 12:40:49;;;;;;;0.20;0.20;;;6.30;99.90;;;;;;5025343;28;20452;-87
2022/11/26 12:43:21;;;;;;;0.30;0.30;;;6.30;99.90;;;;;;5027499;28;20541;-88
2022/11/26 12:46:04;;;;;;;0.20;0.20;;;6.20;99.90;;;;;;5009699;28;20442;-90
2022/11/26 12:49:02;;;;;;;0.20;0.20;;;6.30;99.90;;;;;;5023250;28;20430;-90
2022/11/26 12:51:35;;;;;;;0.20;0.20;;;6.20;99.90;;;;;;5030167;28;20470;-89
2022/11/26 12:54:23;;;;;;;0.20;0.20;;;6.20;99.90;;;;;;5011880;28;20796;-90
2022/11/26 12:56:55;;;;;;;0.20;0.20;;;6.20;99.90;;;;;;5030273;28;20513;-88
2022/11/26 12:59:44;;;;;;;0.30;0.30;;;6.20;99.90;;;;;;5027988;28;20454;-89
2022/11/26 13:02:23;;;;;;;0.20;0.20;;;6.20;99.90;;;;;;5010536;28;20453;-87
2022/11/26 13:04:49;;;;;;;0.20;0.20;;;6.30;99.90;;;;;;5016813;28;21289;-88
2022/11/26 13:07:49;;;;;;;0.20;0.20;;;6.20;99.90;;;;;;5029278;28;20457;-91
2022/11/26 13:10:25;;;;;;;0.30;0.30;;;6.20;99.90;;;;;;5030854;28;20445;-88
2022/11/26 13:13:09;;;;;;;0.20;0.20;;;6.20;99.90;;;;;;5016251;28;20487;-90
2022/11/26 13:16:05;;;;;;;0.20;0.20;;;6.20;99.90;;;;;;5025816;28;20446;-88